createdAt,value
2023-02-11T00:00:46.074Z,0.62
2023-02-11T00:01:47.075Z,0.60
2023-02-11T00:02:47.897Z,0.64
2023-02-11T00:03:46.124Z,0.72
2023-02-11T00:04:46.684Z,0.72
2023-02-11T00:05:46.985Z,0.73
2023-02-11T00:06:46.027Z,0.74
2023-02-11T00:07:46.003Z,0.76
2023-02-11T00:08:45.982Z,0.81
2023-02-11T00:09:45.956Z,0.84
2023-02-11T00:10:45.968Z,0.84
2023-02-11T00:11:45.948Z,0.87
2023-02-11T00:12:45.957Z,0.88
2023-02-11T00:13:46.180Z,0.90
2023-02-11T00:14:45.915Z,0.90
2023-02-11T00:15:45.887Z,0.90
2023-02-11T00:16:45.955Z,0.90
2023-02-11T00:17:45.871Z,0.90
2023-02-11T00:18:45.877Z,0.85
2023-02-11T00:19:45.848Z,0.87
2023-02-11T00:20:45.833Z,0.87
2023-02-11T00:21:45.825Z,0.90
2023-02-11T00:22:45.798Z,0.90
2023-02-11T00:23:45.797Z,0.92
2023-02-11T00:24:45.793Z,0.94
2023-02-11T00:25:45.758Z,0.98
2023-02-11T00:26:45.749Z,0.96
2023-02-11T00:27:45.741Z,0.98
2023-02-11T00:28:45.766Z,0.96
2023-02-11T00:29:45.717Z,0.98
2023-02-11T00:30:45.790Z,0.98
2023-02-11T00:31:45.878Z,0.96
2023-02-11T00:32:45.697Z,0.98
2023-02-11T00:33:45.679Z,0.98
2023-02-11T00:34:45.654Z,0.98
2023-02-11T00:35:45.625Z,0.98
2023-02-11T00:36:45.632Z,0.94
2023-02-11T00:37:45.615Z,0.94
2023-02-11T00:38:45.620Z,0.91
2023-02-11T00:39:45.605Z,0.91
2023-02-11T00:40:45.588Z,0.90
2023-02-11T00:41:45.577Z,0.92
2023-02-11T00:42:45.561Z,0.96
2023-02-11T00:43:45.555Z,0.94
2023-02-11T00:44:45.542Z,0.92
2023-02-11T00:45:45.588Z,0.90
2023-02-11T00:46:45.574Z,0.90
2023-02-11T00:47:45.490Z,0.90
2023-02-11T00:48:45.485Z,0.88
2023-02-11T00:49:45.701Z,0.87
2023-02-11T00:50:45.455Z,0.88
2023-02-11T00:51:45.446Z,0.88
2023-02-11T00:52:45.446Z,0.88
2023-02-11T00:53:45.447Z,0.90
2023-02-11T00:54:45.420Z,0.90
2023-02-11T00:55:45.390Z,0.88
2023-02-11T00:56:45.396Z,0.90
2023-02-11T00:57:45.386Z,0.88
2023-02-11T00:58:45.367Z,0.96
2023-02-11T00:59:45.346Z,0.99
2023-02-11T01:00:45.335Z,1.05
2023-02-11T01:01:45.358Z,1.05
2023-02-11T01:02:45.297Z,1.06
2023-02-11T01:03:45.297Z,1.09
2023-02-11T01:04:45.284Z,1.12
2023-02-11T01:05:45.279Z,1.18
2023-02-11T01:06:45.259Z,1.24
2023-02-11T01:07:45.240Z,1.26
2023-02-11T01:08:45.259Z,1.31
2023-02-11T01:09:45.232Z,1.27
2023-02-11T01:10:45.204Z,1.26
2023-02-11T01:11:45.200Z,1.28
2023-02-11T01:12:45.202Z,1.28
2023-02-11T01:13:45.184Z,1.26
2023-02-11T01:14:45.163Z,1.26
2023-02-11T01:15:45.192Z,1.24
2023-02-11T01:16:45.143Z,1.20
2023-02-11T01:17:45.131Z,1.20
2023-02-11T01:18:45.232Z,1.16
2023-02-11T01:19:45.105Z,1.13
2023-02-11T01:20:45.085Z,1.13
2023-02-11T01:21:45.084Z,1.13
2023-02-11T01:22:45.064Z,1.17
2023-02-11T01:23:45.065Z,1.16
2023-02-11T01:24:45.036Z,1.17
2023-02-11T01:25:45.027Z,1.17
2023-02-11T01:26:45.016Z,1.17
2023-02-11T01:27:45.010Z,1.20
2023-02-11T01:28:44.992Z,1.13
2023-02-11T01:29:44.985Z,1.10
2023-02-11T01:30:45.000Z,1.10
2023-02-11T01:31:45.000Z,1.09
2023-02-11T01:32:44.953Z,1.08
2023-02-11T01:33:44.955Z,1.05
2023-02-11T01:34:44.917Z,1.03
2023-02-11T01:35:44.918Z,1.06
2023-02-11T01:36:44.889Z,1.08
2023-02-11T01:37:44.896Z,1.09
2023-02-11T01:38:44.877Z,1.10
2023-02-11T01:39:44.860Z,1.12
2023-02-11T01:40:44.839Z,1.13
2023-02-11T01:41:45.110Z,1.17
2023-02-11T01:42:44.829Z,1.16
2023-02-11T01:43:44.830Z,1.17
2023-02-11T01:44:44.788Z,1.16
2023-02-11T01:45:44.790Z,1.17
2023-02-11T01:46:45.062Z,1.21
2023-02-11T01:47:44.758Z,1.23
2023-02-11T01:48:44.757Z,1.23
2023-02-11T01:49:44.742Z,1.26
2023-02-11T01:50:44.735Z,1.24
2023-02-11T01:51:44.712Z,1.26
2023-02-11T01:52:44.679Z,1.27
2023-02-11T01:53:44.702Z,1.27
2023-02-11T01:54:44.684Z,1.27
2023-02-11T01:55:44.663Z,1.30
2023-02-11T01:56:44.681Z,1.27
2023-02-11T01:57:44.647Z,1.30
2023-02-11T01:58:44.644Z,1.31
2023-02-11T01:59:44.604Z,1.31
2023-02-11T02:00:44.594Z,1.31
2023-02-11T02:01:44.628Z,1.36
2023-02-11T02:02:44.573Z,1.34
2023-02-11T02:03:44.631Z,1.34
2023-02-11T02:04:44.554Z,1.35
2023-02-11T02:05:44.535Z,1.36
2023-02-11T02:06:44.522Z,1.36
2023-02-11T02:07:44.513Z,1.38
2023-02-11T02:08:44.495Z,1.38
2023-02-11T02:09:44.490Z,1.42
2023-02-11T02:10:44.466Z,1.45
2023-02-11T02:11:44.452Z,1.48
2023-02-11T02:12:44.433Z,1.48
2023-02-11T02:13:44.434Z,1.49
2023-02-11T02:14:44.422Z,1.55
2023-02-11T02:15:44.450Z,1.56
2023-02-11T02:16:44.431Z,1.57
2023-02-11T02:17:44.376Z,1.57
2023-02-11T02:18:44.374Z,1.62
2023-02-11T02:19:44.360Z,1.63
2023-02-11T02:20:44.330Z,1.63
2023-02-11T02:21:44.319Z,1.63
2023-02-11T02:22:44.312Z,1.69
2023-02-11T02:23:44.293Z,1.67
2023-02-11T02:24:44.292Z,1.71
2023-02-11T02:25:44.265Z,1.74
2023-02-11T02:26:44.287Z,1.78
2023-02-11T02:27:44.249Z,1.78
2023-02-11T02:28:44.489Z,1.82
2023-02-11T02:29:44.220Z,1.84
2023-02-11T02:30:44.234Z,1.87
2023-02-11T02:31:44.261Z,1.89
2023-02-11T02:32:44.411Z,1.93
2023-02-11T02:33:44.177Z,1.97
2023-02-11T02:34:44.192Z,2.01
2023-02-11T02:35:44.141Z,2.06
2023-02-11T02:36:44.124Z,2.06
2023-02-11T02:37:44.111Z,2.11
2023-02-11T02:38:44.109Z,2.15
2023-02-11T02:39:44.100Z,2.18
2023-02-11T02:40:44.080Z,2.21
2023-02-11T02:41:44.071Z,2.21
2023-02-11T02:42:44.067Z,2.21
2023-02-11T02:43:44.040Z,2.24
2023-02-11T02:44:44.032Z,2.22
2023-02-11T02:45:44.011Z,2.24
2023-02-11T02:46:44.023Z,2.25
2023-02-11T02:47:44.613Z,2.28
2023-02-11T02:48:43.983Z,2.29
2023-02-11T02:49:43.978Z,2.30
2023-02-11T02:50:43.960Z,2.35
2023-02-11T02:51:43.938Z,2.37
2023-02-11T02:52:43.948Z,2.37
2023-02-11T02:53:43.907Z,2.40
2023-02-11T02:54:43.918Z,2.40
2023-02-11T02:55:43.875Z,2.37
2023-02-11T02:56:43.876Z,2.37
2023-02-11T02:57:44.116Z,2.40
2023-02-11T02:58:47.244Z,2.37
2023-02-11T02:59:43.865Z,2.36
2023-02-11T03:00:43.849Z,2.37
2023-02-11T03:01:43.806Z,2.37
2023-02-11T03:02:43.797Z,2.40
2023-02-11T03:03:44.122Z,2.39
2023-02-11T03:04:43.787Z,2.37
2023-02-11T03:05:43.761Z,2.37
2023-02-11T03:06:43.749Z,2.35
2023-02-11T03:07:43.732Z,2.36
2023-02-11T03:08:43.719Z,2.37
2023-02-11T03:09:43.723Z,2.39
2023-02-11T03:10:43.713Z,2.36
2023-02-11T03:11:43.671Z,2.40
2023-02-11T03:12:43.691Z,2.42
2023-02-11T03:13:43.650Z,2.45
2023-02-11T03:14:43.653Z,2.48
2023-02-11T03:15:43.623Z,2.51
2023-02-11T03:16:43.718Z,2.50
2023-02-11T03:17:43.601Z,2.53
2023-02-11T03:18:43.601Z,2.54
2023-02-11T03:19:43.606Z,2.60
2023-02-11T03:20:43.573Z,2.63
2023-02-11T03:21:44.513Z,2.65
2023-02-11T03:22:43.546Z,2.63
2023-02-11T03:23:43.522Z,2.66
2023-02-11T03:24:43.521Z,2.61
2023-02-11T03:25:43.527Z,2.65
2023-02-11T03:26:43.501Z,2.63
2023-02-11T03:27:43.471Z,2.61
2023-02-11T03:28:43.472Z,2.61
2023-02-11T03:29:43.470Z,2.60
2023-02-11T03:30:43.483Z,2.63
2023-02-11T03:31:43.544Z,2.63
2023-02-11T03:32:43.418Z,2.63
2023-02-11T03:33:43.383Z,2.65
2023-02-11T03:34:43.417Z,2.65
2023-02-11T03:35:43.586Z,2.66
2023-02-11T03:36:43.357Z,2.66
2023-02-11T03:37:43.346Z,2.65
2023-02-11T03:38:43.340Z,2.66
2023-02-11T03:39:43.333Z,2.66
2023-02-11T03:40:44.275Z,2.66
2023-02-11T03:41:43.288Z,2.68
2023-02-11T03:42:43.277Z,2.72
2023-02-11T03:43:43.270Z,2.72
2023-02-11T03:44:43.265Z,2.73
2023-02-11T03:45:43.250Z,2.75
2023-02-11T03:46:43.242Z,2.75
2023-02-11T03:47:43.216Z,2.75
2023-02-11T03:48:43.205Z,2.72
2023-02-11T03:49:43.195Z,2.73
2023-02-11T03:50:43.176Z,2.75
2023-02-11T03:51:43.167Z,2.75
2023-02-11T03:52:43.156Z,2.76
2023-02-11T03:53:43.132Z,2.78
2023-02-11T03:54:43.133Z,2.78
2023-02-11T03:55:43.103Z,2.78
2023-02-11T03:56:43.116Z,2.73
2023-02-11T03:57:43.067Z,2.73
2023-02-11T03:58:43.075Z,2.72
2023-02-11T03:59:43.054Z,2.69
2023-02-11T04:00:43.059Z,2.71
2023-02-11T04:01:43.013Z,2.71
2023-02-11T04:02:43.045Z,2.71
2023-02-11T04:03:43.008Z,2.71
2023-02-11T04:04:43.013Z,2.66
2023-02-11T04:05:43.016Z,2.69
2023-02-11T04:06:42.968Z,2.71
2023-02-11T04:07:42.953Z,2.71
2023-02-11T04:08:42.941Z,2.69
2023-02-11T04:09:42.923Z,2.72
2023-02-11T04:10:42.947Z,2.71
2023-02-11T04:11:42.889Z,2.69
2023-02-11T04:12:42.903Z,2.71
2023-02-11T04:13:42.859Z,2.72
2023-02-11T04:14:42.851Z,2.72
2023-02-11T04:15:42.838Z,2.71
2023-02-11T04:16:42.924Z,2.71
2023-02-11T04:17:42.823Z,2.72
2023-02-11T04:18:42.812Z,2.72
2023-02-11T04:19:42.819Z,2.73
2023-02-11T04:20:42.786Z,2.75
2023-02-11T04:21:42.771Z,2.73
2023-02-11T04:22:42.753Z,2.73
2023-02-11T04:23:42.739Z,2.72
2023-02-11T04:24:42.740Z,2.73
2023-02-11T04:25:42.717Z,2.72
2023-02-11T04:26:42.716Z,2.73
2023-02-11T04:27:42.694Z,2.72
2023-02-11T04:28:42.699Z,2.78
2023-02-11T04:29:42.671Z,2.76
2023-02-11T04:30:42.674Z,2.78
2023-02-11T04:31:44.654Z,2.79
2023-02-11T04:32:42.682Z,2.81
2023-02-11T04:33:42.630Z,2.79
2023-02-11T04:34:42.619Z,2.82
2023-02-11T04:35:42.577Z,2.81
2023-02-11T04:36:42.591Z,2.84
2023-02-11T04:37:42.559Z,2.86
2023-02-11T04:38:42.830Z,2.82
2023-02-11T04:39:42.581Z,2.84
2023-02-11T04:40:42.542Z,2.87
2023-02-11T04:41:42.548Z,2.89
2023-02-11T04:42:42.503Z,2.90
2023-02-11T04:43:42.471Z,2.87
2023-02-11T04:44:42.480Z,2.87
2023-02-11T04:45:42.520Z,2.90
2023-02-11T04:46:42.454Z,2.91
2023-02-11T04:47:42.446Z,2.91
2023-02-11T04:48:42.426Z,2.91
2023-02-11T04:49:42.407Z,2.91
2023-02-11T04:50:42.405Z,2.89
2023-02-11T04:51:42.377Z,2.90
2023-02-11T04:52:42.391Z,2.89
2023-02-11T04:53:42.373Z,2.87
2023-02-11T04:54:42.357Z,2.90
2023-02-11T04:55:42.348Z,2.90
2023-02-11T04:56:42.317Z,2.89
2023-02-11T04:57:42.309Z,2.94
2023-02-11T04:58:42.291Z,2.94
2023-02-11T04:59:42.284Z,2.93
2023-02-11T05:00:42.270Z,2.91
2023-02-11T05:01:42.303Z,2.91
2023-02-11T05:02:42.230Z,2.93
2023-02-11T05:03:42.303Z,2.93
2023-02-11T05:04:42.245Z,2.91
2023-02-11T05:05:42.201Z,2.90
2023-02-11T05:06:42.190Z,2.87
2023-02-11T05:07:42.178Z,2.87
2023-02-11T05:08:42.180Z,2.89
2023-02-11T05:09:42.138Z,2.89
2023-02-11T05:10:42.149Z,2.89
2023-02-11T05:11:42.122Z,2.90
2023-02-11T05:12:42.108Z,2.90
2023-02-11T05:13:42.095Z,2.91
2023-02-11T05:14:42.072Z,2.94
2023-02-11T05:15:42.084Z,2.93
2023-02-11T05:16:42.108Z,2.91
2023-02-11T05:17:42.042Z,2.91
2023-02-11T05:18:42.031Z,2.89
2023-02-11T05:19:42.041Z,2.90
2023-02-11T05:20:42.021Z,2.87
2023-02-11T05:21:53.157Z,2.86
2023-02-11T05:22:43.006Z,2.86
2023-02-11T05:23:41.969Z,2.86
2023-02-11T05:24:41.960Z,2.87
2023-02-11T05:25:41.940Z,2.87
2023-02-11T05:26:41.962Z,2.87
2023-02-11T05:27:41.918Z,2.87
2023-02-11T05:28:41.896Z,2.87
2023-02-11T05:29:41.904Z,2.90
2023-02-11T05:30:41.921Z,2.90
2023-02-11T05:31:41.853Z,2.90
2023-02-11T05:32:41.862Z,2.90
2023-02-11T05:33:41.841Z,2.91
2023-02-11T05:34:41.814Z,2.93
2023-02-11T05:35:41.826Z,2.93
2023-02-11T05:36:41.817Z,2.89
2023-02-11T05:37:42.597Z,2.91
2023-02-11T05:38:41.753Z,2.91
2023-02-11T05:39:41.743Z,2.91
2023-02-11T05:40:41.768Z,2.89
2023-02-11T05:41:41.747Z,2.87
2023-02-11T05:42:41.980Z,2.89
2023-02-11T05:43:41.703Z,2.87
2023-02-11T05:44:41.684Z,2.89
2023-02-11T05:45:41.699Z,2.91
2023-02-11T05:46:42.525Z,2.93
2023-02-11T05:47:41.653Z,2.96
2023-02-11T05:48:41.851Z,2.94
2023-02-11T05:49:41.854Z,2.96
2023-02-11T05:50:54.272Z,2.99
2023-02-11T05:54:31.499Z,2.97
2023-02-11T05:54:37.154Z,2.97
2023-02-11T05:55:36.206Z,3.02
2023-02-11T05:56:36.216Z,3.00
2023-02-11T05:57:36.193Z,3.00
2023-02-11T05:58:36.173Z,3.02
2023-02-11T05:59:36.160Z,3.04
2023-02-11T06:00:36.160Z,3.04
2023-02-11T06:01:36.156Z,3.08
2023-02-11T06:02:36.205Z,3.04
2023-02-11T06:03:36.183Z,3.05
2023-02-11T06:04:36.092Z,3.05
2023-02-11T06:05:36.089Z,3.04
2023-02-11T06:06:36.082Z,3.04
2023-02-11T06:07:36.068Z,3.05
2023-02-11T06:08:39.057Z,3.04
2023-02-11T06:09:36.028Z,3.08
2023-02-11T06:10:36.023Z,3.07
2023-02-11T06:11:36.017Z,3.08
2023-02-11T06:12:35.991Z,3.11
2023-02-11T06:13:36.012Z,3.09
2023-02-11T06:14:35.978Z,3.09
2023-02-11T06:15:36.002Z,3.08
2023-02-11T06:16:35.972Z,3.09
2023-02-11T06:17:35.943Z,3.05
2023-02-11T06:18:35.915Z,3.08
2023-02-11T06:19:35.902Z,3.11
2023-02-11T06:20:35.884Z,3.14
2023-02-11T06:21:43.340Z,3.14
2023-02-11T06:22:36.859Z,3.14
2023-02-11T06:23:35.852Z,3.14
2023-02-11T06:24:58.687Z,3.14
2023-02-11T06:25:36.842Z,3.15
2023-02-11T06:26:35.810Z,3.17
2023-02-11T06:27:35.810Z,3.15
2023-02-11T06:28:35.841Z,3.14
2023-02-11T06:29:35.771Z,3.18
2023-02-11T06:30:35.766Z,3.20
2023-02-11T06:31:35.876Z,3.20
2023-02-11T06:32:44.470Z,3.22
2023-02-11T06:33:36.717Z,3.22
2023-02-11T06:34:35.734Z,3.23
2023-02-11T06:35:36.644Z,3.20
2023-02-11T06:36:35.683Z,3.20
2023-02-11T06:37:35.662Z,3.20
2023-02-11T06:38:36.607Z,3.23
2023-02-11T06:39:36.608Z,3.22
2023-02-11T06:40:35.642Z,3.23
2023-02-11T06:41:35.632Z,3.27
2023-02-11T06:42:35.623Z,3.29
2023-02-11T06:43:35.601Z,3.32
2023-02-11T06:44:35.593Z,3.35
2023-02-11T06:45:36.514Z,3.41
2023-02-11T06:46:35.602Z,3.42
2023-02-11T06:47:35.544Z,3.44
2023-02-11T06:48:36.491Z,3.44
2023-02-11T06:49:36.467Z,3.42
2023-02-11T06:50:35.506Z,3.44
2023-02-11T06:51:36.473Z,3.46
2023-02-11T06:52:36.457Z,3.46
2023-02-11T06:53:35.462Z,3.51
2023-02-11T06:54:36.404Z,3.51
2023-02-11T06:55:35.426Z,3.55
2023-02-11T06:56:35.437Z,3.59
2023-02-11T06:57:36.367Z,3.55
2023-02-11T06:58:35.391Z,3.59
2023-02-11T06:59:35.386Z,3.60
2023-02-11T07:00:35.378Z,3.60
2023-02-11T07:01:35.434Z,3.59
2023-02-11T07:02:35.612Z,3.62
2023-02-11T07:03:35.330Z,3.63
2023-02-11T07:04:35.309Z,3.60
2023-02-11T07:05:35.307Z,3.56
2023-02-11T07:06:35.310Z,3.59
2023-02-11T07:07:35.292Z,3.63
2023-02-11T07:08:35.258Z,3.63
2023-02-11T07:09:36.205Z,3.62
2023-02-11T07:10:35.230Z,3.66
2023-02-11T07:11:35.243Z,3.69
2023-02-11T07:12:36.173Z,3.69
2023-02-11T07:13:35.439Z,3.72
2023-02-11T07:14:35.181Z,3.73
2023-02-11T07:15:35.181Z,3.78
2023-02-11T07:16:35.270Z,3.81
2023-02-11T07:17:35.200Z,3.82
2023-02-11T07:18:35.136Z,3.85
2023-02-11T07:19:36.108Z,3.88
2023-02-11T07:20:35.103Z,3.90
2023-02-11T07:21:35.101Z,3.91
2023-02-11T07:22:36.050Z,3.90
2023-02-11T07:23:35.077Z,3.91
2023-02-11T07:24:35.054Z,3.88
2023-02-11T07:25:35.996Z,3.88
2023-02-11T07:26:35.022Z,3.91
2023-02-11T07:27:35.053Z,3.90
2023-02-11T07:28:35.057Z,3.92
2023-02-11T07:29:34.985Z,3.92
2023-02-11T07:30:34.981Z,3.92
2023-02-11T07:31:35.075Z,3.96
2023-02-11T07:32:34.960Z,3.96
2023-02-11T07:33:34.935Z,3.99
2023-02-11T07:34:34.947Z,3.99
2023-02-11T07:35:34.910Z,3.98
2023-02-11T07:36:34.894Z,4.00
2023-02-11T07:37:34.919Z,3.99
2023-02-11T07:38:34.874Z,3.98
2023-02-11T07:39:34.866Z,3.99
2023-02-11T07:40:34.838Z,3.99
2023-02-11T07:41:37.630Z,3.99
2023-02-11T07:42:34.824Z,4.00
2023-02-11T07:43:34.808Z,4.00
2023-02-11T07:44:34.780Z,4.00
2023-02-11T07:45:34.802Z,4.02
2023-02-11T07:46:34.828Z,4.05
2023-02-11T07:47:34.763Z,4.05
2023-02-11T07:48:34.745Z,4.05
2023-02-11T07:49:36.725Z,4.09
2023-02-11T07:50:34.725Z,4.08
2023-02-11T07:51:34.698Z,4.09
2023-02-11T07:52:34.685Z,4.08
2023-02-11T07:53:34.958Z,4.09
2023-02-11T07:54:34.661Z,4.10
2023-02-11T07:55:34.650Z,4.12
2023-02-11T07:56:34.633Z,4.16
2023-02-11T07:57:34.875Z,4.18
2023-02-11T07:58:34.617Z,4.21
2023-02-11T07:59:34.592Z,4.24
2023-02-11T08:00:34.662Z,4.28
2023-02-11T08:01:34.564Z,4.27
2023-02-11T08:02:34.645Z,4.26
2023-02-11T08:03:34.561Z,4.27
2023-02-11T08:04:34.588Z,4.34
2023-02-11T08:05:34.518Z,4.35
2023-02-11T08:06:34.497Z,4.36
2023-02-11T08:07:35.097Z,4.34
2023-02-11T08:08:34.466Z,4.34
2023-02-11T08:09:34.698Z,4.34
2023-02-11T08:10:34.438Z,4.36
2023-02-11T08:11:34.431Z,4.39
2023-02-11T08:12:34.427Z,4.42
2023-02-11T08:13:34.420Z,4.51
2023-02-11T08:14:34.406Z,4.57
2023-02-11T08:15:34.397Z,4.61
2023-02-11T08:16:34.464Z,4.69
2023-02-11T08:17:34.368Z,4.74
2023-02-11T08:18:34.347Z,4.78
2023-02-11T08:19:35.299Z,4.83
2023-02-11T08:20:34.316Z,4.85
2023-02-11T08:21:34.301Z,4.88
2023-02-11T08:22:34.299Z,4.94
2023-02-11T08:23:34.272Z,4.97
2023-02-11T08:24:34.252Z,4.98
2023-02-11T08:25:34.250Z,4.96
2023-02-11T08:26:34.236Z,4.97
2023-02-11T08:27:34.249Z,5.01
2023-02-11T08:28:34.328Z,5.04
2023-02-11T08:29:34.447Z,5.00
2023-02-11T08:30:34.179Z,5.03
2023-02-11T08:31:34.316Z,5.06
2023-02-11T08:32:34.169Z,5.11
2023-02-11T08:33:34.145Z,5.12
2023-02-11T08:34:34.127Z,5.12
2023-02-11T08:35:34.130Z,5.12
2023-02-11T08:36:34.114Z,5.14
2023-02-11T08:37:34.325Z,5.12
2023-02-11T08:38:34.100Z,5.14
2023-02-11T08:39:34.093Z,5.16
2023-02-11T08:40:34.046Z,5.21
2023-02-11T08:41:34.060Z,5.21
2023-02-11T08:42:34.032Z,5.22
2023-02-11T08:43:34.022Z,5.18
2023-02-11T08:44:34.227Z,5.18
2023-02-11T08:45:34.034Z,5.18
2023-02-11T08:46:33.989Z,5.19
2023-02-11T08:47:33.952Z,5.22
2023-02-11T08:48:33.964Z,5.25
2023-02-11T08:49:34.996Z,5.24
2023-02-11T08:50:33.911Z,5.25
2023-02-11T08:51:33.908Z,5.21
2023-02-11T08:52:33.894Z,5.21
2023-02-11T08:53:33.884Z,5.19
2023-02-11T08:54:33.878Z,5.19
2023-02-11T08:55:33.867Z,5.21
2023-02-11T08:56:33.837Z,5.29
2023-02-11T08:57:33.855Z,5.30
2023-02-11T08:58:33.827Z,5.37
2023-02-11T08:59:34.052Z,5.44
2023-02-11T09:00:33.784Z,5.55
2023-02-11T09:01:33.828Z,5.65
2023-02-11T09:02:33.800Z,5.75
2023-02-11T09:03:34.550Z,5.76
2023-02-11T09:04:33.737Z,5.79
2023-02-11T09:05:33.729Z,5.79
2023-02-11T09:06:33.724Z,5.76
2023-02-11T09:07:33.711Z,5.66
2023-02-11T09:08:33.684Z,5.58
2023-02-11T09:09:33.677Z,5.54
2023-02-11T09:10:33.664Z,5.44
2023-02-11T09:11:33.654Z,5.41
2023-02-11T09:12:33.633Z,5.36
2023-02-11T09:13:33.976Z,5.36
2023-02-11T09:14:33.597Z,5.33
2023-02-11T09:15:33.585Z,5.34
2023-02-11T09:16:33.579Z,5.34
2023-02-11T09:17:33.594Z,5.40
2023-02-11T09:18:33.557Z,5.43
2023-02-11T09:19:33.525Z,5.47
2023-02-11T09:20:33.531Z,5.51
2023-02-11T09:21:33.511Z,5.57
2023-02-11T09:22:33.501Z,5.55
2023-02-11T09:23:33.508Z,5.55
2023-02-11T09:24:33.467Z,5.55
2023-02-11T09:25:33.462Z,5.59
2023-02-11T09:26:33.448Z,5.59
2023-02-11T09:27:33.430Z,5.66
2023-02-11T09:28:33.535Z,5.67
2023-02-11T09:29:33.411Z,5.69
2023-02-11T09:30:33.547Z,5.72
2023-02-11T09:31:33.451Z,5.75
2023-02-11T09:32:33.368Z,5.73
2023-02-11T09:33:34.140Z,5.75
2023-02-11T09:34:33.335Z,5.73
2023-02-11T09:35:33.320Z,5.67
2023-02-11T09:36:33.304Z,5.62
2023-02-11T09:37:35.132Z,5.62
2023-02-11T09:38:33.282Z,5.61
2023-02-11T09:39:33.269Z,5.59
2023-02-11T09:40:33.247Z,5.59
2023-02-11T09:41:33.254Z,5.58
2023-02-11T09:42:33.228Z,5.62
2023-02-11T09:43:33.240Z,5.61
2023-02-11T09:44:33.194Z,5.61
2023-02-11T09:45:33.195Z,5.57
2023-02-11T09:46:33.214Z,5.54
2023-02-11T09:47:33.156Z,5.48
2023-02-11T09:48:33.154Z,5.47
2023-02-11T09:49:33.130Z,5.48
2023-02-11T09:50:33.132Z,5.48
2023-02-11T09:51:33.104Z,5.52
2023-02-11T09:52:33.105Z,5.57
2023-02-11T09:53:33.104Z,5.57
2023-02-11T09:54:33.077Z,5.58
2023-02-11T09:55:33.056Z,5.59
2023-02-11T09:56:33.053Z,5.62
2023-02-11T09:57:33.843Z,5.65
2023-02-11T09:58:33.044Z,5.70
2023-02-11T09:59:33.000Z,5.70
2023-02-11T10:00:32.993Z,5.66
2023-02-11T10:01:32.981Z,5.66
2023-02-11T10:02:32.970Z,5.65
2023-02-11T10:03:32.961Z,5.69
2023-02-11T10:04:32.959Z,5.69
2023-02-11T10:05:32.921Z,5.69
2023-02-11T10:06:32.923Z,5.75
2023-02-11T10:07:32.890Z,5.75
2023-02-11T10:08:32.899Z,5.82
2023-02-11T10:09:32.868Z,5.84
2023-02-11T10:10:32.863Z,5.85
2023-02-11T10:11:32.857Z,5.88
2023-02-11T10:12:32.828Z,5.91
2023-02-11T10:13:32.814Z,5.94
2023-02-11T10:14:32.808Z,5.97
2023-02-11T10:15:32.859Z,6.00
2023-02-11T10:16:32.775Z,6.06
2023-02-11T10:17:32.801Z,6.09
2023-02-11T10:18:32.773Z,6.16
2023-02-11T10:19:32.734Z,6.25
2023-02-11T10:20:32.737Z,6.35
2023-02-11T10:21:32.729Z,6.37
2023-02-11T10:22:32.699Z,6.42
2023-02-11T10:23:32.677Z,6.42
2023-02-11T10:25:29.554Z,6.55
